createdAt,value
2018-12-30T00:01:12.548Z,3.21
2018-12-30T00:03:43.458Z,3.42
2018-12-30T00:06:14.272Z,2.88
2018-12-30T00:08:45.234Z,3.08
2018-12-30T00:11:15.878Z,3.33
2018-12-30T00:13:46.396Z,3.17
2018-12-30T00:16:17.054Z,3.13
2018-12-30T00:18:47.871Z,3.05
2018-12-30T00:21:18.140Z,3.11
2018-12-30T00:23:49.030Z,2.98
2018-12-30T00:26:19.333Z,2.97
2018-12-30T00:28:49.933Z,3.13
2018-12-30T00:31:20.749Z,2.87
2018-12-30T00:33:51.759Z,2.99
2018-12-30T00:36:22.041Z,3.18
2018-12-30T00:38:52.909Z,2.97
2018-12-30T00:41:23.574Z,2.94
2018-12-30T00:43:54.172Z,3.09
2018-12-30T00:46:24.723Z,3.20
2018-12-30T00:48:55.356Z,3.20
2018-12-30T00:51:26.011Z,3.24
2018-12-30T00:53:56.394Z,3.49
2018-12-30T00:56:26.650Z,3.18
2018-12-30T00:58:57.194Z,3.11
2018-12-30T01:01:27.829Z,3.20
2018-12-30T01:03:58.224Z,3.31
2018-12-30T01:06:28.561Z,3.08
2018-12-30T01:08:59.229Z,3.05
2018-12-30T01:11:29.671Z,2.90
2018-12-30T01:14:00.231Z,3.07
2018-12-30T01:16:30.831Z,3.12
2018-12-30T01:19:01.601Z,3.22
2018-12-30T01:21:32.161Z,3.08
2018-12-30T01:24:02.623Z,2.98
2018-12-30T01:26:32.925Z,2.85
2018-12-30T01:29:03.716Z,2.94
2018-12-30T01:31:34.419Z,2.92
2018-12-30T01:34:05.054Z,3.09
2018-12-30T01:36:36.764Z,3.03
2018-12-30T01:39:08.768Z,3.07
2018-12-30T01:41:39.055Z,3.05
2018-12-30T01:44:09.939Z,3.19
2018-12-30T01:46:40.374Z,3.17
2018-12-30T01:49:11.248Z,3.21
2018-12-30T01:51:41.521Z,2.89
2018-12-30T01:54:12.057Z,2.86
2018-12-30T01:56:42.409Z,2.98
2018-12-30T01:59:13.346Z,2.83
2018-12-30T02:01:43.618Z,2.91
2018-12-30T02:04:14.423Z,3.05
2018-12-30T02:06:45.121Z,2.89
2018-12-30T02:09:15.672Z,3.10
2018-12-30T02:11:46.245Z,3.08
2018-12-30T02:14:17.141Z,3.09
2018-12-30T02:16:48.615Z,3.23
2018-12-30T02:19:19.294Z,3.09
2018-12-30T02:21:49.591Z,3.13
2018-12-30T02:24:20.212Z,2.97
2018-12-30T02:26:50.601Z,2.81
2018-12-30T02:29:21.493Z,2.86
2018-12-30T02:31:52.114Z,2.77
2018-12-30T02:34:23.000Z,2.85
2018-12-30T02:36:53.277Z,2.93
2018-12-30T02:39:24.107Z,2.92
2018-12-30T02:41:54.805Z,3.03
2018-12-30T02:44:25.355Z,3.15
2018-12-30T02:46:55.706Z,3.04
2018-12-30T02:49:26.672Z,3.05
2018-12-30T02:51:57.024Z,3.15
2018-12-30T02:54:27.567Z,3.05
2018-12-30T02:56:58.335Z,2.98
2018-12-30T02:59:29.029Z,3.12
2018-12-30T03:01:59.585Z,3.13
2018-12-30T03:04:30.382Z,3.09
2018-12-30T03:07:00.796Z,3.00
2018-12-30T03:09:31.360Z,3.19
2018-12-30T03:12:02.017Z,3.21
2018-12-30T03:14:32.754Z,3.28
2018-12-30T03:17:03.035Z,2.79
2018-12-30T03:19:33.878Z,3.26
2018-12-30T03:22:04.340Z,2.93
2018-12-30T03:24:34.778Z,3.08
2018-12-30T03:27:05.389Z,3.16
2018-12-30T03:29:36.306Z,3.11
2018-12-30T03:32:06.889Z,3.13
2018-12-30T03:34:37.724Z,2.92
2018-12-30T03:37:08.096Z,3.05
2018-12-30T03:39:38.812Z,3.07
2018-12-30T03:42:09.308Z,3.08
2018-12-30T03:44:40.015Z,2.99
2018-12-30T03:47:10.370Z,3.01
2018-12-30T03:49:41.167Z,2.91
2018-12-30T03:52:11.453Z,3.08
2018-12-30T03:54:41.967Z,3.09
2018-12-30T03:57:12.441Z,2.98
2018-12-30T03:59:43.600Z,2.86
2018-12-30T04:02:14.460Z,2.90
2018-12-30T04:04:44.972Z,2.67
2018-12-30T04:07:15.324Z,2.68
2018-12-30T04:09:46.356Z,2.88
2018-12-30T04:12:16.641Z,2.89
2018-12-30T04:14:47.284Z,2.88
2018-12-30T04:17:17.862Z,2.67
2018-12-30T04:19:48.395Z,2.79
2018-12-30T04:22:18.667Z,2.70
2018-12-30T04:24:49.288Z,2.74
2018-12-30T04:27:19.821Z,2.81
2018-12-30T04:29:50.564Z,2.75
2018-12-30T04:32:20.878Z,2.77
2018-12-30T04:34:51.443Z,2.71
2018-12-30T04:37:22.091Z,2.70
2018-12-30T04:39:52.397Z,2.74
2018-12-30T04:42:22.877Z,2.54
2018-12-30T04:44:53.459Z,2.79
2018-12-30T04:47:23.962Z,2.82
2018-12-30T04:49:54.244Z,3.06
2018-12-30T04:52:25.874Z,2.74
2018-12-30T04:54:57.066Z,2.97
2018-12-30T04:57:27.332Z,3.00
2018-12-30T04:59:57.991Z,3.11
2018-12-30T05:02:29.250Z,2.98
2018-12-30T05:05:00.178Z,3.25
2018-12-30T05:07:30.653Z,3.27
2018-12-30T05:10:01.205Z,3.25
2018-12-30T05:12:31.939Z,3.17
2018-12-30T05:15:02.616Z,3.01
2018-12-30T05:17:32.995Z,3.09
2018-12-30T05:20:03.947Z,3.15
2018-12-30T05:22:34.306Z,3.13
2018-12-30T05:25:04.589Z,3.17
2018-12-30T05:27:34.981Z,3.10
2018-12-30T05:30:06.312Z,3.09
2018-12-30T05:32:36.607Z,3.24
2018-12-30T05:35:07.150Z,3.13
2018-12-30T05:37:37.545Z,3.25
2018-12-30T05:40:08.302Z,3.36
2018-12-30T05:42:38.864Z,3.46
2018-12-30T05:45:09.183Z,3.29
2018-12-30T05:47:39.876Z,3.45
2018-12-30T05:50:10.654Z,3.50
2018-12-30T05:52:42.093Z,3.68
2018-12-30T05:55:12.537Z,3.62
2018-12-30T05:57:43.362Z,3.58
2018-12-30T06:00:13.828Z,3.69
2018-12-30T06:02:44.131Z,3.66
2018-12-30T06:05:14.611Z,3.66
2018-12-30T06:07:45.436Z,3.67
2018-12-30T06:10:16.107Z,3.41
2018-12-30T06:12:46.428Z,3.72
2018-12-30T06:15:16.720Z,3.67
2018-12-30T06:17:47.421Z,3.78
2018-12-30T06:20:17.698Z,3.57
2018-12-30T06:22:49.724Z,3.82
2018-12-30T06:25:20.646Z,3.85
2018-12-30T06:27:50.977Z,3.93
2018-12-30T06:30:21.279Z,3.75
2018-12-30T06:32:51.994Z,3.68
2018-12-30T06:35:22.769Z,3.92
2018-12-30T06:37:53.149Z,4.09
2018-12-30T06:40:24.421Z,3.91
2018-12-30T06:42:54.761Z,3.91
2018-12-30T06:45:25.197Z,4.00
2018-12-30T06:47:55.477Z,3.83
2018-12-30T06:50:25.780Z,4.05
2018-12-30T06:52:57.742Z,4.10
2018-12-30T06:55:28.366Z,4.11
2018-12-30T06:57:58.763Z,4.14
2018-12-30T07:00:29.503Z,4.15
2018-12-30T07:02:59.979Z,3.78
2018-12-30T07:05:30.306Z,3.81
2018-12-30T07:08:00.949Z,3.90
2018-12-30T07:10:31.696Z,4.34
2018-12-30T07:13:01.967Z,4.18
2018-12-30T07:15:32.321Z,4.36
2018-12-30T07:18:02.732Z,4.07
2018-12-30T07:20:33.030Z,4.11
2018-12-30T07:23:05.949Z,4.41
2018-12-30T07:25:35.766Z,4.09
2018-12-30T07:28:06.046Z,3.87
2018-12-30T07:30:36.353Z,3.88
2018-12-30T07:33:06.955Z,3.88
2018-12-30T07:35:37.793Z,3.97
2018-12-30T07:38:08.085Z,3.73
2018-12-30T07:40:38.771Z,3.98
2018-12-30T07:43:09.065Z,4.01
2018-12-30T07:45:39.897Z,3.87
2018-12-30T07:48:10.171Z,4.01
2018-12-30T07:50:40.849Z,4.20
2018-12-30T07:53:13.924Z,4.14
2018-12-30T07:55:44.258Z,4.29
2018-12-30T07:58:14.546Z,4.22
2018-12-30T08:00:45.285Z,4.51
2018-12-30T08:03:15.912Z,4.39
2018-12-30T08:05:46.259Z,4.24
2018-12-30T08:08:17.005Z,4.40
2018-12-30T08:10:47.990Z,4.30
2018-12-30T08:13:18.271Z,4.24
2018-12-30T08:15:49.111Z,4.63
2018-12-30T08:18:19.420Z,4.74
2018-12-30T08:20:50.073Z,4.58
2018-12-30T08:23:21.813Z,4.51
2018-12-30T08:25:52.984Z,4.77
2018-12-30T08:28:25.211Z,4.64
2018-12-30T08:30:56.594Z,4.68
2018-12-30T08:33:26.941Z,4.88
2018-12-30T08:35:57.701Z,4.61
2018-12-30T08:38:28.312Z,4.61
2018-12-30T08:40:58.991Z,4.70
2018-12-30T08:43:29.277Z,4.56
2018-12-30T08:45:59.945Z,4.15
2018-12-30T08:48:30.933Z,4.34
2018-12-30T08:51:01.331Z,4.61
2018-12-30T08:53:31.632Z,4.59
2018-12-30T08:56:02.727Z,4.55
2018-12-30T08:58:33.488Z,4.65
2018-12-30T09:01:04.084Z,4.97
2018-12-30T09:03:34.374Z,4.91
2018-12-30T09:06:05.108Z,5.10
2018-12-30T09:08:35.488Z,4.88
2018-12-30T09:11:06.827Z,4.70
2018-12-30T09:13:37.485Z,4.58
2018-12-30T09:16:07.875Z,4.51
2018-12-30T09:18:38.245Z,4.41
2018-12-30T09:21:08.829Z,4.33
2018-12-30T09:23:39.151Z,4.49
2018-12-30T09:26:10.089Z,4.70
2018-12-30T09:28:40.647Z,4.71
2018-12-30T09:31:11.151Z,4.36
2018-12-30T09:33:41.825Z,4.48
2018-12-30T09:36:12.450Z,4.39
2018-12-30T09:38:43.798Z,4.57
2018-12-30T09:41:14.955Z,4.75
2018-12-30T09:43:45.302Z,4.55
2018-12-30T09:46:15.871Z,4.38
2018-12-30T09:48:46.247Z,4.19
2018-12-30T09:51:16.833Z,4.69
2018-12-30T09:53:47.567Z,4.38
2018-12-30T09:56:18.113Z,4.13
2018-12-30T09:58:48.388Z,4.25
2018-12-30T10:01:19.018Z,4.40
2018-12-30T10:03:49.710Z,3.89
2018-12-30T10:06:20.033Z,4.17
2018-12-30T10:08:50.777Z,4.39
2018-12-30T10:11:21.640Z,4.55
2018-12-30T10:13:52.232Z,4.61
2018-12-30T10:16:23.225Z,4.55
2018-12-30T10:18:54.254Z,4.43
2018-12-30T10:21:24.827Z,4.28
2018-12-30T10:23:55.476Z,3.96
2018-12-30T10:26:26.080Z,4.20
2018-12-30T10:28:56.763Z,4.17
2018-12-30T10:31:27.976Z,4.33
2018-12-30T10:33:58.252Z,4.18
2018-12-30T10:36:28.994Z,3.88
2018-12-30T10:38:59.585Z,3.85
2018-12-30T10:41:30.290Z,4.09
2018-12-30T10:44:00.560Z,4.13
2018-12-30T10:46:31.025Z,4.23
2018-12-30T10:49:01.304Z,3.93
2018-12-30T10:51:31.678Z,3.94
2018-12-30T10:54:02.343Z,3.87
2018-12-30T10:56:32.797Z,3.94
2018-12-30T10:59:03.608Z,4.13
2018-12-30T11:01:33.890Z,4.22
2018-12-30T11:04:04.454Z,4.30
2018-12-30T11:06:35.108Z,4.08
2018-12-30T11:09:08.168Z,4.03
2018-12-30T11:11:38.476Z,3.82
2018-12-30T11:14:09.114Z,3.76
2018-12-30T11:16:39.451Z,3.85
2018-12-30T11:19:09.797Z,3.90
2018-12-30T11:21:41.465Z,3.87
2018-12-30T11:24:12.087Z,3.47
2018-12-30T11:26:42.679Z,3.67
2018-12-30T11:29:13.452Z,3.91
2018-12-30T11:31:44.127Z,3.93
2018-12-30T11:34:14.769Z,3.77
2018-12-30T11:36:45.250Z,3.99
2018-12-30T11:39:16.064Z,3.93
2018-12-30T11:41:46.320Z,3.87
2018-12-30T11:44:16.628Z,3.87
2018-12-30T11:46:47.068Z,3.93
2018-12-30T11:49:17.448Z,4.10
2018-12-30T11:51:47.789Z,3.95
2018-12-30T11:54:18.657Z,3.60
2018-12-30T11:56:49.145Z,3.81
2018-12-30T11:59:19.720Z,3.78
2018-12-30T12:01:50.043Z,4.00
2018-12-30T12:04:20.344Z,3.94
2018-12-30T12:06:51.009Z,3.87
2018-12-30T12:09:21.285Z,3.55
2018-12-30T12:11:51.567Z,3.61
2018-12-30T12:14:22.038Z,3.54
2018-12-30T12:16:52.426Z,3.65
2018-12-30T12:19:22.918Z,3.94
2018-12-30T12:21:53.570Z,3.70
2018-12-30T12:24:24.719Z,3.90
2018-12-30T12:26:55.106Z,3.55
2018-12-30T12:29:26.963Z,3.50
2018-12-30T12:31:57.237Z,3.48
2018-12-30T12:34:28.233Z,3.58
2018-12-30T12:36:58.800Z,3.48
2018-12-30T12:39:29.297Z,3.47
2018-12-30T12:42:00.064Z,3.48
2018-12-30T12:44:30.429Z,3.55
2018-12-30T12:47:00.989Z,3.28
2018-12-30T12:49:31.760Z,3.38
2018-12-30T12:52:02.395Z,3.46
2018-12-30T12:54:32.697Z,3.56
2018-12-30T12:57:03.055Z,3.71
2018-12-30T12:59:33.684Z,3.68
2018-12-30T13:02:04.067Z,3.98
2018-12-30T13:04:34.819Z,3.83
2018-12-30T13:07:05.211Z,3.83
2018-12-30T13:09:35.848Z,3.86
2018-12-30T13:12:06.232Z,3.80
2018-12-30T13:14:36.498Z,3.75
2018-12-30T13:17:07.253Z,3.84
2018-12-30T13:19:37.910Z,3.89
2018-12-30T13:22:08.181Z,3.47
2018-12-30T13:24:40.013Z,3.75
2018-12-30T13:27:11.037Z,3.67
2018-12-30T13:29:41.423Z,3.55
2018-12-30T13:32:12.060Z,3.62
2018-12-30T13:34:42.713Z,3.58
2018-12-30T13:37:13.250Z,3.70
2018-12-30T13:39:44.070Z,3.81
2018-12-30T13:42:14.323Z,3.51
2018-12-30T13:44:44.654Z,3.27
2018-12-30T13:47:15.363Z,3.39
2018-12-30T13:49:45.694Z,3.47
2018-12-30T13:52:16.166Z,3.41
2018-12-30T13:54:47.813Z,3.65
2018-12-30T13:57:18.891Z,3.34
2018-12-30T13:59:49.160Z,3.19
2018-12-30T14:02:20.163Z,3.39
2018-12-30T14:04:50.808Z,3.65
2018-12-30T14:07:21.497Z,3.88
2018-12-30T14:09:51.796Z,3.91
2018-12-30T14:12:22.269Z,3.41
2018-12-30T14:14:52.674Z,3.63
2018-12-30T14:17:23.232Z,3.69
2018-12-30T14:19:53.975Z,3.69
2018-12-30T14:22:24.734Z,3.58
2018-12-30T14:24:55.735Z,3.53
2018-12-30T14:27:26.491Z,3.66
2018-12-30T14:29:57.162Z,3.83
2018-12-30T14:32:27.759Z,3.64
2018-12-30T14:34:58.472Z,3.62
2018-12-30T14:37:28.948Z,3.55
2018-12-30T14:39:59.281Z,3.69
2018-12-30T14:42:29.635Z,3.71
2018-12-30T14:45:00.299Z,3.62
2018-12-30T14:47:30.583Z,3.57
2018-12-30T14:50:01.579Z,3.43
2018-12-30T14:52:32.265Z,3.67
2018-12-30T14:55:03.856Z,3.48
2018-12-30T14:57:34.621Z,3.56
2018-12-30T15:00:05.684Z,3.59
2018-12-30T15:02:36.000Z,3.44
2018-12-30T15:05:06.379Z,3.24
2018-12-30T15:07:37.129Z,3.39
2018-12-30T15:10:07.412Z,3.51
2018-12-30T15:12:37.801Z,3.85
2018-12-30T15:15:08.085Z,3.83
2018-12-30T15:17:38.508Z,3.83
2018-12-30T15:20:09.079Z,3.74
2018-12-30T15:22:39.543Z,3.97
2018-12-30T15:25:11.927Z,3.70
2018-12-30T15:27:42.304Z,3.68
2018-12-30T15:30:13.565Z,3.70
2018-12-30T15:32:44.115Z,3.98
2018-12-30T15:35:14.789Z,3.69
2018-12-30T15:37:45.303Z,3.97
2018-12-30T15:40:15.657Z,3.99
2018-12-30T15:42:46.094Z,3.95
2018-12-30T15:45:16.779Z,3.62
2018-12-30T15:47:47.080Z,3.62
2018-12-30T15:50:19.479Z,3.69
2018-12-30T15:52:51.325Z,3.68
2018-12-30T15:55:21.674Z,4.04
2018-12-30T15:57:52.062Z,4.12
2018-12-30T16:00:22.723Z,4.13
2018-12-30T16:02:53.047Z,4.05
2018-12-30T16:05:23.340Z,4.13
2018-12-30T16:07:53.995Z,4.14
2018-12-30T16:10:24.315Z,4.09
2018-12-30T16:12:54.629Z,4.16
2018-12-30T16:15:25.231Z,4.15
2018-12-30T16:17:55.609Z,4.03
2018-12-30T16:20:26.305Z,4.13
2018-12-30T16:22:56.642Z,4.15
2018-12-30T16:25:27.485Z,3.88
2018-12-30T16:27:58.342Z,3.98
2018-12-30T16:30:28.602Z,4.04
2018-12-30T16:32:58.945Z,4.04
2018-12-30T16:35:29.601Z,4.11
2018-12-30T16:37:59.955Z,4.13
2018-12-30T16:40:30.231Z,4.10
2018-12-30T16:43:00.649Z,4.01
2018-12-30T16:45:31.300Z,3.99
2018-12-30T16:48:01.762Z,1.97
2018-12-30T16:50:32.138Z,3.83
2018-12-30T16:53:02.475Z,3.63
2018-12-30T16:55:35.029Z,3.74
2018-12-30T16:58:05.376Z,3.76
2018-12-30T17:00:35.876Z,3.71
2018-12-30T17:03:06.581Z,3.90
2018-12-30T17:05:37.118Z,3.97
2018-12-30T17:08:07.401Z,4.07
2018-12-30T17:10:37.823Z,4.11
2018-12-30T17:13:08.483Z,4.15
2018-12-30T17:15:38.841Z,4.10
2018-12-30T17:18:09.310Z,4.13
2018-12-30T17:20:39.628Z,4.12
2018-12-30T17:23:10.433Z,4.18
2018-12-30T17:25:43.230Z,4.17
2018-12-30T17:28:13.052Z,4.09
2018-12-30T17:30:43.637Z,4.12
2018-12-30T17:33:14.038Z,4.11
2018-12-30T17:35:46.192Z,4.13
2018-12-30T17:38:17.356Z,4.17
2018-12-30T17:40:47.772Z,4.12
2018-12-30T17:43:18.157Z,4.04
2018-12-30T17:45:48.527Z,4.02
2018-12-30T17:48:19.199Z,4.06
2018-12-30T17:50:49.520Z,4.05
2018-12-30T17:53:19.850Z,4.09
2018-12-30T17:55:51.009Z,4.11
2018-12-30T17:58:21.675Z,4.14
2018-12-30T18:00:51.954Z,4.24
2018-12-30T18:03:22.488Z,4.13
2018-12-30T18:05:52.900Z,4.14
2018-12-30T18:08:23.158Z,4.05
2018-12-30T18:10:53.534Z,4.02
2018-12-30T18:13:24.349Z,4.13
2018-12-30T18:15:54.573Z,3.93
2018-12-30T18:18:24.901Z,3.68
2018-12-30T18:20:55.465Z,3.76
2018-12-30T18:23:25.747Z,3.66
2018-12-30T18:25:58.768Z,3.83
2018-12-30T18:28:28.428Z,3.75
2018-12-30T18:30:59.102Z,3.81
2018-12-30T18:33:29.775Z,3.95
2018-12-30T18:36:00.239Z,4.11
2018-12-30T18:38:30.778Z,3.97
2018-12-30T18:41:01.435Z,3.82
2018-12-30T18:43:31.751Z,3.44
2018-12-30T18:46:02.092Z,3.51
2018-12-30T18:48:32.964Z,3.59
2018-12-30T18:51:03.396Z,3.77
2018-12-30T18:53:34.147Z,3.70
2018-12-30T18:56:06.947Z,3.70
2018-12-30T18:58:37.140Z,3.84
2018-12-30T19:01:07.833Z,3.83
2018-12-30T19:03:38.115Z,3.82
2018-12-30T19:06:08.773Z,3.93
2018-12-30T19:08:39.397Z,3.95
2018-12-30T19:11:09.674Z,4.08
2018-12-30T19:13:40.316Z,3.98
2018-12-30T19:16:10.893Z,4.17
2018-12-30T19:18:41.524Z,4.17
2018-12-30T19:21:12.118Z,4.10
2018-12-30T19:23:42.606Z,4.03
2018-12-30T19:26:14.399Z,3.94
2018-12-30T19:28:45.047Z,3.76
2018-12-30T19:31:15.462Z,3.71
2018-12-30T19:33:45.761Z,3.79
2018-12-30T19:36:16.746Z,3.77
2018-12-30T19:38:47.289Z,3.81
2018-12-30T19:41:17.676Z,3.77
2018-12-30T19:43:48.829Z,3.47
2018-12-30T19:46:19.577Z,3.49
2018-12-30T19:48:50.203Z,3.33
2018-12-30T19:51:21.066Z,3.40
2018-12-30T19:53:51.734Z,3.27
2018-12-30T19:56:22.314Z,3.50
2018-12-30T19:58:53.011Z,3.47
2018-12-30T20:01:23.789Z,3.57
2018-12-30T20:03:55.325Z,3.51
2018-12-30T20:06:26.069Z,3.41
2018-12-30T20:08:56.557Z,3.55
2018-12-30T20:11:26.812Z,3.58
2018-12-30T20:13:57.458Z,3.20
2018-12-30T20:16:28.160Z,3.48
2018-12-30T20:18:58.589Z,3.26
2018-12-30T20:21:29.133Z,3.30
2018-12-30T20:23:59.697Z,3.30
2018-12-30T20:26:30.397Z,3.24
2018-12-30T20:29:00.924Z,3.23
2018-12-30T20:31:32.622Z,3.19
2018-12-30T20:34:02.898Z,2.88
2018-12-30T20:36:33.350Z,2.80
2018-12-30T20:39:04.497Z,2.83
2018-12-30T20:41:35.115Z,2.79
2018-12-30T20:44:05.834Z,2.61
2018-12-30T20:46:36.790Z,2.67
2018-12-30T20:49:07.072Z,2.72
2018-12-30T20:51:37.601Z,2.99
2018-12-30T20:54:08.503Z,3.06
2018-12-30T20:56:38.874Z,2.90
2018-12-30T20:59:09.282Z,3.05
2018-12-30T21:01:39.909Z,3.00
2018-12-30T21:04:10.181Z,3.10
2018-12-30T21:06:40.851Z,3.06
2018-12-30T21:09:11.235Z,2.90
2018-12-30T21:11:41.852Z,2.95
2018-12-30T21:14:12.562Z,3.10
2018-12-30T21:16:43.159Z,2.82
2018-12-30T21:19:13.729Z,2.60
2018-12-30T21:21:44.638Z,2.84
2018-12-30T21:24:14.918Z,2.72
2018-12-30T21:26:45.729Z,2.81
2018-12-30T21:29:16.243Z,2.90
2018-12-30T21:31:46.574Z,2.89
2018-12-30T21:34:16.884Z,2.82
2018-12-30T21:36:47.664Z,3.02
2018-12-30T21:39:18.044Z,3.11
2018-12-30T21:41:48.715Z,3.09
2018-12-30T21:44:19.008Z,3.07
2018-12-30T21:46:49.364Z,3.17
2018-12-30T21:49:20.070Z,3.21
2018-12-30T21:51:50.661Z,2.99
2018-12-30T21:54:21.087Z,2.74
2018-12-30T21:56:54.918Z,2.72
2018-12-30T21:59:24.185Z,2.94
2018-12-30T22:01:54.732Z,3.07
2018-12-30T22:04:25.296Z,3.18
2018-12-30T22:06:55.975Z,3.13
2018-12-30T22:09:26.356Z,3.26
2018-12-30T22:11:56.693Z,3.17
2018-12-30T22:14:26.986Z,3.01
2018-12-30T22:16:57.922Z,3.12
2018-12-30T22:19:28.348Z,3.21
2018-12-30T22:21:58.937Z,3.11
2018-12-30T22:24:29.536Z,3.16
2018-12-30T22:27:00.752Z,3.19
2018-12-30T22:29:31.098Z,3.15
2018-12-30T22:32:02.009Z,3.25
2018-12-30T22:34:32.403Z,3.30
2018-12-30T22:37:02.668Z,3.22
2018-12-30T22:39:33.296Z,3.32
2018-12-30T22:42:04.767Z,3.44
2018-12-30T22:44:35.321Z,3.26
2018-12-30T22:47:06.233Z,3.45
2018-12-30T22:49:36.854Z,3.32
2018-12-30T22:52:07.620Z,3.51
2018-12-30T22:54:38.510Z,3.59
2018-12-30T22:57:08.830Z,3.49
2018-12-30T22:59:39.341Z,3.57
2018-12-30T23:02:10.557Z,3.53
2018-12-30T23:04:40.894Z,3.71
2018-12-30T23:07:11.329Z,3.74
2018-12-30T23:09:41.951Z,3.79
2018-12-30T23:12:12.553Z,3.70
2018-12-30T23:14:43.407Z,3.77
2018-12-30T23:17:13.919Z,3.71
2018-12-30T23:19:44.391Z,3.73
2018-12-30T23:22:15.027Z,3.56
2018-12-30T23:24:45.331Z,3.41
2018-12-30T23:27:15.683Z,3.66
2018-12-30T23:29:46.087Z,3.76
2018-12-30T23:32:16.501Z,3.54
2018-12-30T23:34:46.794Z,3.43
2018-12-30T23:37:17.749Z,3.55
2018-12-30T23:39:48.280Z,3.54
2018-12-30T23:42:18.695Z,3.46
2018-12-30T23:44:49.272Z,3.48
2018-12-30T23:47:19.852Z,3.38
2018-12-30T23:49:50.422Z,3.35
2018-12-30T23:52:20.725Z,3.54
2018-12-30T23:54:51.280Z,3.46
2018-12-30T23:57:22.167Z,3.27
2018-12-30T23:59:52.898Z,3.46
